Time;durP1;ratioP1;P1;durP2;ratioP2;P2;SDS_P1;SDS_P2;PMS_P1;PMS_P2;Temp;Humidity;BMP_temperature;BMP_pressure;BME280_temperature;BME280_humidity;BME280_pressure;Samples;Min_cycle;Max_cycle;Signal;HPM_P1;HPM_P2
2023/11/06 00:00:17;;;;;;;4.07;2.80;;;;;;;9.81;89.95;97806.16;5088688;28;20201;-66
2023/11/06 00:02:46;;;;;;;9.73;2.90;;;;;;;9.82;90.35;97812.97;5085881;28;20246;-68
2023/11/06 00:05:15;;;;;;;4.73;3.27;;;;;;;9.83;89.99;97819.78;5098159;28;20331;-68
2023/11/06 00:07:43;;;;;;;3.57;2.70;;;;;;;9.83;90.05;97815.50;5092077;28;20201;-69
2023/11/06 00:10:11;;;;;;;5.07;2.87;;;;;;;9.83;90.31;97814.63;5077480;28;20283;-67
2023/11/06 00:12:41;;;;;;;3.40;2.70;;;;;;;9.82;90.52;97829.22;5091294;28;20670;-67
2023/11/06 00:15:13;;;;;;;2.70;2.23;;;;;;;9.83;90.60;97819.78;5088359;28;20739;-65
2023/11/06 00:17:42;;;;;;;3.80;2.70;;;;;;;9.85;90.47;97830.84;5094811;28;20328;-66
2023/11/06 00:20:11;;;;;;;4.23;2.30;;;;;;;9.85;90.80;97838.56;5078017;28;20205;-66
2023/11/06 00:22:40;;;;;;;3.60;2.60;;;;;;;9.84;90.50;97831.75;5091544;28;20681;-67
2023/11/06 00:25:08;;;;;;;3.67;2.87;;;;;;;9.83;90.82;97828.34;5087805;28;20687;-65
2023/11/06 00:27:36;;;;;;;3.60;2.60;;;;;;;9.85;90.06;97839.38;5100625;28;20283;-66
2023/11/06 00:30:07;;;;;;;4.00;2.70;;;;;;;9.83;90.29;97843.78;5088040;28;20201;-75
2023/11/06 00:32:37;;;;;;;4.20;2.50;;;;;;;9.86;90.42;97850.50;5082930;28;20240;-75
2023/11/06 00:35:06;;;;;;;3.27;2.60;;;;;;;9.83;90.15;97853.22;5106959;28;20231;-72
2023/11/06 00:37:34;;;;;;;3.47;2.40;;;;;;;9.84;89.76;97860.06;5086798;28;20201;-74
2023/11/06 00:40:07;;;;;;;3.03;2.40;;;;;;;9.84;90.27;97857.47;5090055;28;20673;-72
2023/11/06 00:42:36;;;;;;;3.93;2.67;;;;;;;9.85;89.81;97857.41;5092545;28;20610;-73
2023/11/06 00:45:05;;;;;;;4.47;2.17;;;;;;;9.84;89.90;97863.44;5090591;28;20217;-73
2023/11/06 00:47:33;;;;;;;3.73;2.60;;;;;;;9.85;90.22;97869.44;5093175;28;20280;-73
2023/11/06 00:50:03;;;;;;;3.13;2.50;;;;;;;9.87;90.01;97867.63;5092486;28;20646;-77
2023/11/06 00:52:31;;;;;;;3.77;2.17;;;;;;;9.89;89.84;97876.94;5092726;28;20236;-74
2023/11/06 00:55:00;;;;;;;3.30;2.10;;;;;;;9.90;89.91;97872.63;5074773;28;20635;-76
2023/11/06 00:57:29;;;;;;;5.20;2.40;;;;;;;9.91;89.67;97879.47;5098282;28;20651;-69
2023/11/06 00:59:57;;;;;;;3.97;2.20;;;;;;;9.93;89.40;97896.47;5099645;28;20207;-75
2023/11/06 01:02:25;;;;;;;3.07;2.10;;;;;;;9.92;89.37;97879.38;5090162;28;20221;-73
2023/11/06 01:04:54;;;;;;;3.00;2.20;;;;;;;9.94;89.52;97887.00;5098414;28;20220;-78
2023/11/06 01:07:23;;;;;;;2.43;1.90;;;;;;;9.93;88.91;97887.94;5099678;28;20219;-73
2023/11/06 01:09:52;;;;;;;2.73;2.10;;;;;;;9.96;89.21;97895.50;5091325;28;20292;-74
2023/11/06 01:12:20;;;;;;;3.50;2.30;;;;;;;9.96;89.08;97897.25;5101102;28;20230;-74
2023/11/06 01:14:49;;;;;;;2.87;2.10;;;;;;;9.95;89.20;97891.28;5102863;28;20515;-75
2023/11/06 01:17:17;;;;;;;2.87;2.30;;;;;;;9.95;89.08;97890.44;5098384;28;20232;-76
2023/11/06 01:19:46;;;;;;;1.97;1.83;;;;;;;9.96;88.57;97898.09;5094976;28;20201;-73
2023/11/06 01:22:15;;;;;;;3.77;1.67;;;;;;;9.97;88.78;97896.34;5094541;28;20239;-74
2023/11/06 01:24:47;;;;;;;3.10;1.87;;;;;;;9.98;88.36;97911.72;5093500;28;20621;-70
2023/11/06 01:27:16;;;;;;;2.53;1.83;;;;;;;10.01;88.73;97905.59;5101811;28;20240;-73
2023/11/06 01:29:44;;;;;;;2.40;1.90;;;;;;;9.98;88.24;97904.03;5092586;28;20208;-74
2023/11/06 01:32:12;;;;;;;2.27;1.70;;;;;;;10.02;88.22;97917.59;5100791;28;20262;-72
2023/11/06 01:34:40;;;;;;;2.43;1.83;;;;;;;10.00;88.73;97920.19;5094754;28;20208;-77
2023/11/06 01:37:08;;;;;;;2.87;1.50;;;;;;;10.00;89.48;97930.50;5093869;28;20205;-74
2023/11/06 01:39:37;;;;;;;2.63;1.83;;;;;;;9.98;90.22;97921.16;5089247;28;20732;-75
2023/11/06 01:42:07;;;;;;;3.10;2.00;;;;;;;9.99;90.68;97943.44;5092241;28;20672;-64
2023/11/06 01:44:35;;;;;;;1.87;1.73;;;;;;;9.93;91.69;97944.53;5092883;28;20717;-64
2023/11/06 01:47:03;;;;;;;3.10;2.10;;;;;;;9.92;92.34;97950.56;5091765;28;20211;-65
2023/11/06 01:49:31;;;;;;;2.60;1.87;;;;;;;9.87;93.08;97949.94;5090940;28;20215;-66
2023/11/06 01:52:00;;;;;;;3.33;2.30;;;;;;;9.85;93.23;97954.31;5091226;28;20200;-66
2023/11/06 01:54:28;;;;;;;1.87;1.53;;;;;;;9.80;93.69;97951.94;5086805;28;20220;-65
2023/11/06 01:56:56;;;;;;;2.27;1.83;;;;;;;9.74;93.80;97946.19;5084712;28;20555;-63
2023/11/06 01:59:26;;;;;;;2.83;1.80;;;;;;;9.72;93.94;97946.28;5094005;28;20215;-66
2023/11/06 02:01:59;;;;;;;1.87;1.67;;;;;;;9.71;93.96;97960.00;5095390;28;20255;-66
2023/11/06 02:04:30;;;;;;;2.10;1.70;;;;;;;9.72;93.70;97951.44;5092000;28;20651;-64
2023/11/06 02:06:59;;;;;;;2.03;1.70;;;;;;;9.74;93.49;97967.59;5095815;28;20567;-64
2023/11/06 02:09:28;;;;;;;3.70;1.80;;;;;;;9.73;93.36;97960.81;5090573;28;20230;-63
2023/11/06 02:11:58;;;;;;;6.63;2.00;;;;;;;9.74;93.06;97969.34;5093234;28;20311;-64
2023/11/06 02:14:27;;;;;;;2.97;2.17;;;;;;;9.73;93.07;97973.66;5086213;28;20204;-64
2023/11/06 02:16:55;;;;;;;2.00;1.60;;;;;;;9.75;92.71;97966.69;5088920;28;20265;-65
2023/11/06 02:19:23;;;;;;;1.60;1.50;;;;;;;9.81;92.66;97986.19;5091063;28;20204;-64
2023/11/06 02:21:54;;;;;;;1.80;1.63;;;;;;;9.81;92.67;97983.63;5091932;28;20215;-69
2023/11/06 02:24:27;;;;;;;2.17;1.67;;;;;;;9.84;92.14;97994.63;5098669;28;20198;-64
2023/11/06 02:26:56;;;;;;;2.73;2.07;;;;;;;9.83;92.27;97994.66;5094389;28;20254;-66
2023/11/06 02:29:24;;;;;;;3.47;2.03;;;;;;;9.87;91.53;97999.66;5080535;28;20315;-67
2023/11/06 02:31:52;;;;;;;6.73;1.90;;;;;;;9.89;91.49;97999.56;5086467;28;20258;-64
2023/11/06 02:34:22;;;;;;;2.03;1.70;;;;;;;9.92;91.33;98007.16;5083177;28;20288;-64
2023/11/06 02:36:50;;;;;;;3.07;1.93;;;;;;;9.90;91.44;98011.53;5095249;28;20659;-64
2023/11/06 02:39:18;;;;;;;3.37;1.93;;;;;;;9.91;91.11;98008.91;5101720;28;20200;-64
2023/11/06 02:41:49;;;;;;;2.20;2.00;;;;;;;9.96;91.31;98020.75;5090309;28;20261;-63
2023/11/06 02:44:17;;;;;;;3.30;2.00;;;;;;;9.96;90.97;98016.44;5090557;28;20299;-64
2023/11/06 02:46:46;;;;;;;2.80;1.63;;;;;;;9.98;90.33;98024.94;5091344;28;20211;-65
2023/11/06 02:49:14;;;;;;;1.60;1.47;;;;;;;9.99;90.08;98024.03;5086683;28;20219;-62
2023/11/06 02:51:42;;;;;;;1.87;1.50;;;;;;;10.03;89.89;98030.72;5088978;28;20270;-72
2023/11/06 02:54:11;;;;;;;1.90;1.70;;;;;;;10.04;89.51;98023.81;5088327;28;20200;-77
2023/11/06 02:56:40;;;;;;;3.30;1.60;;;;;;;10.05;89.24;98046.06;5091593;28;20204;-73
2023/11/06 02:59:09;;;;;;;3.50;1.80;;;;;;;10.07;88.78;98050.25;5100777;28;20647;-74
2023/11/06 03:01:38;;;;;;;3.17;1.63;;;;;;;10.09;88.89;98032.22;5097141;28;20563;-72
2023/11/06 03:04:06;;;;;;;1.90;1.33;;;;;;;10.09;88.37;98053.63;5108660;28;20237;-73
2023/11/06 03:06:34;;;;;;;2.73;1.83;;;;;;;10.11;88.31;98043.25;5106750;28;20574;-73
2023/11/06 03:09:02;;;;;;;3.37;1.40;;;;;;;10.12;87.94;98061.19;5090524;28;20200;-73
2023/11/06 03:11:33;;;;;;;1.20;1.10;;;;;;;10.14;87.57;98046.53;5093162;28;20204;-74
2023/11/06 03:14:01;;;;;;;3.80;1.17;;;;;;;10.16;87.59;98069.63;5085124;28;20203;-73
2023/11/06 03:16:30;;;;;;;2.27;1.30;;;;;;;10.19;86.86;98063.50;5094800;28;20564;-73
2023/11/06 03:18:58;;;;;;;2.47;1.70;;;;;;;10.20;87.05;98075.47;5100962;28;20284;-72
2023/11/06 03:21:29;;;;;;;1.97;1.30;;;;;;;10.20;87.00;98071.19;5097904;28;20371;-73
2023/11/06 03:23:57;;;;;;;1.30;1.20;;;;;;;10.19;86.88;98077.22;5091674;28;20204;-73
2023/11/06 03:26:25;;;;;;;2.27;1.40;;;;;;;10.20;87.14;98080.63;5082415;28;20870;-72
2023/11/06 03:28:53;;;;;;;1.93;1.30;;;;;;;10.19;87.02;98086.69;5088536;28;20208;-73
2023/11/06 03:31:21;;;;;;;1.50;1.40;;;;;;;10.21;86.87;98074.59;5099560;28;20200;-72
2023/11/06 03:33:51;;;;;;;3.00;1.30;;;;;;;10.20;86.57;98086.63;5091315;28;20204;-74
2023/11/06 03:36:19;;;;;;;2.70;1.13;;;;;;;10.21;86.27;98083.16;5093553;28;20201;-74
2023/11/06 03:38:47;;;;;;;1.13;1.03;;;;;;;10.23;86.02;98090.78;5090770;28;20239;-72
2023/11/06 03:41:15;;;;;;;1.60;1.27;;;;;;;10.25;85.53;98089.00;5091730;28;20660;-74
2023/11/06 03:43:43;;;;;;;2.20;1.47;;;;;;;10.28;85.51;98081.19;5084697;28;20209;-74
2023/11/06 03:46:11;;;;;;;1.43;1.17;;;;;;;10.29;85.18;98108.59;5087331;28;20228;-71
2023/11/06 03:48:39;;;;;;;1.83;1.30;;;;;;;10.29;84.78;98090.59;5088050;28;20209;-73
2023/11/06 03:51:08;;;;;;;1.33;1.20;;;;;;;10.30;84.87;98098.22;5092873;28;20348;-72
2023/11/06 03:53:36;;;;;;;1.50;1.07;;;;;;;10.31;84.57;98107.66;5096635;28;20667;-75
2023/11/06 03:56:05;;;;;;;3.10;1.10;;;;;;;10.31;84.03;98094.78;5095845;28;20205;-75
2023/11/06 03:58:33;;;;;;;4.20;1.20;;;;;;;10.33;84.09;98105.00;5098127;28;20203;-74
2023/11/06 04:01:02;;;;;;;1.93;1.10;;;;;;;10.32;83.70;98111.06;5087290;28;20204;-66
2023/11/06 04:03:31;;;;;;;2.03;1.10;;;;;;;10.31;83.70;98099.94;5089391;28;20765;-64
2023/11/06 04:06:00;;;;;;;2.17;1.10;;;;;;;10.35;83.45;98119.50;5086673;28;20197;-65
2023/11/06 04:08:30;;;;;;;2.40;1.30;;;;;;;10.33;83.35;98121.28;5089159;28;20299;-66
2023/11/06 04:11:01;;;;;;;1.23;1.13;;;;;;;10.34;83.19;98122.09;5090446;28;20294;-66
2023/11/06 04:13:28;;;;;;;1.50;1.20;;;;;;;10.31;83.19;98130.81;5099008;28;20655;-66
2023/11/06 04:15:56;;;;;;;1.17;1.00;;;;;;;10.29;83.02;98129.19;5090844;28;20200;-65
2023/11/06 04:18:27;;;;;;;1.60;1.27;;;;;;;10.31;83.29;98119.66;5086665;28;20598;-63
2023/11/06 04:20:56;;;;;;;1.90;1.00;;;;;;;10.29;82.83;98131.78;5091839;28;20232;-64
2023/11/06 04:23:24;;;;;;;0.97;0.87;;;;;;;10.28;82.39;98127.53;5093064;28;20627;-65
2023/11/06 04:25:54;;;;;;;0.80;0.80;;;;;;;10.29;82.47;98136.91;5094939;28;20213;-64
2023/11/06 04:28:22;;;;;;;2.00;0.90;;;;;;;10.28;82.38;98145.53;5091161;28;20649;-65
2023/11/06 04:30:50;;;;;;;1.50;0.90;;;;;;;10.30;82.48;98141.16;5090355;28;20242;-67
2023/11/06 04:33:18;;;;;;;1.67;1.00;;;;;;;10.30;81.87;98144.56;5088223;28;20216;-65
2023/11/06 04:35:46;;;;;;;0.90;0.90;;;;;;;10.30;82.06;98148.88;5090594;28;20231;-64
2023/11/06 04:38:14;;;;;;;1.37;0.80;;;;;;;10.28;82.29;98153.28;5092726;28;20692;-65
2023/11/06 04:40:42;;;;;;;1.00;0.80;;;;;;;10.30;82.68;98159.19;5093495;28;20654;-64
2023/11/06 04:43:12;;;;;;;3.63;1.20;;;;;;;10.29;82.74;98158.34;5098050;28;20679;-64
2023/11/06 04:45:40;;;;;;;0.80;0.80;;;;;;;10.26;82.35;98167.91;5094066;28;20250;-65
2023/11/06 04:48:09;;;;;;;1.00;0.90;;;;;;;10.25;82.16;98166.22;5087175;28;20236;-64
2023/11/06 04:50:38;;;;;;;0.80;0.80;;;;;;;10.24;82.17;98180.00;5094983;28;20204;-64
2023/11/06 04:53:06;;;;;;;0.97;0.87;;;;;;;10.25;81.74;98176.53;5099109;28;20578;-62
2023/11/06 04:55:34;;;;;;;1.60;1.03;;;;;;;10.26;81.72;98179.06;5090989;28;20303;-65
2023/11/06 04:58:02;;;;;;;0.93;0.70;;;;;;;10.23;81.83;98186.03;5095306;28;20229;-64
2023/11/06 05:00:32;;;;;;;1.10;0.80;;;;;;;10.26;81.53;98194.50;5097013;28;20242;-67
2023/11/06 05:03:00;;;;;;;1.80;0.90;;;;;;;10.23;81.31;98194.59;5087655;28;20205;-65
2023/11/06 05:05:28;;;;;;;2.57;1.10;;;;;;;10.27;81.02;98223.66;5100255;28;20287;-65
2023/11/06 05:07:57;;;;;;;1.50;1.10;;;;;;;10.27;81.35;98210.78;5089982;28;20223;-65
2023/11/06 05:10:25;;;;;;;1.03;0.83;;;;;;;10.24;81.76;98210.88;5098003;28;20242;-66
2023/11/06 05:12:53;;;;;;;1.10;1.00;;;;;;;10.21;83.02;98221.31;5092622;28;20196;-76
2023/11/06 05:15:21;;;;;;;1.87;1.17;;;;;;;10.19;83.06;98223.91;5091309;28;20196;-72
2023/11/06 05:17:50;;;;;;;2.57;1.10;;;;;;;10.10;83.82;98226.88;5097991;28;20267;-72
2023/11/06 05:20:20;;;;;;;2.00;1.00;;;;;;;10.07;83.76;98229.56;5089894;28;20603;-72
2023/11/06 05:22:48;;;;;;;1.67;1.07;;;;;;;10.04;83.84;98245.09;5097586;28;20207;-72
2023/11/06 05:25:16;;;;;;;2.57;1.10;;;;;;;10.01;84.46;98240.91;5087734;28;20208;-71
2023/11/06 05:27:44;;;;;;;1.40;0.90;;;;;;;9.96;83.79;98242.00;5086709;28;20255;-75
2023/11/06 05:30:13;;;;;;;0.87;0.80;;;;;;;9.93;84.13;98248.06;5088932;28;20212;-73
2023/11/06 05:32:41;;;;;;;1.70;1.40;;;;;;;9.91;84.50;98268.72;5089251;28;20734;-75
2023/11/06 05:35:10;;;;;;;1.40;1.10;;;;;;;9.91;84.18;98261.00;5096011;28;20219;-72
2023/11/06 05:37:38;;;;;;;1.93;0.90;;;;;;;9.91;84.10;98265.31;5093935;28;20206;-74
2023/11/06 05:40:09;;;;;;;1.10;0.93;;;;;;;9.91;83.33;98261.00;5090358;28;20213;-70
2023/11/06 05:42:36;;;;;;;1.27;1.03;;;;;;;9.93;83.66;98273.81;5092603;28;20211;-72
2023/11/06 05:45:06;;;;;;;2.47;1.20;;;;;;;9.93;82.96;98274.63;5095507;28;20207;-71
2023/11/06 05:47:34;;;;;;;3.60;1.50;;;;;;;9.97;82.36;98295.13;5090462;28;20225;-70
2023/11/06 05:50:04;;;;;;;1.57;0.90;;;;;;;9.98;82.00;98292.50;5092306;28;20563;-73
2023/11/06 05:52:33;;;;;;;4.17;1.10;;;;;;;9.99;81.88;98289.03;5098589;28;20706;-71
2023/11/06 05:55:02;;;;;;;2.00;1.20;;;;;;;10.03;81.68;98300.03;5092865;28;20680;-71
2023/11/06 05:57:32;;;;;;;2.07;1.10;;;;;;;10.04;81.58;98309.44;5093666;28;20258;-72
2023/11/06 06:00:00;;;;;;;1.37;0.90;;;;;;;10.03;80.99;98311.16;5093648;28;20201;-70
2023/11/06 06:02:28;;;;;;;1.27;0.80;;;;;;;10.03;80.47;98336.06;5092782;28;20273;-71
2023/11/06 06:04:57;;;;;;;3.23;1.10;;;;;;;10.05;80.39;98326.53;5098833;28;20200;-71
2023/11/06 06:07:25;;;;;;;1.50;0.67;;;;;;;10.05;79.96;98329.97;5093877;28;20240;-72
2023/11/06 06:09:55;;;;;;;1.73;0.90;;;;;;;10.09;79.79;98322.97;5091350;28;20269;-75
2023/11/06 06:12:23;;;;;;;1.80;0.97;;;;;;;10.11;79.31;98336.63;5085915;28;20655;-71
2023/11/06 06:14:51;;;;;;;1.50;1.00;;;;;;;10.14;79.25;98345.06;5085844;28;20690;-71
2023/11/06 06:17:19;;;;;;;4.30;1.00;;;;;;;10.15;78.85;98351.88;5090703;28;20229;-72
2023/11/06 06:19:48;;;;;;;1.43;1.00;;;;;;;10.15;78.38;98357.03;5091156;28;20208;-72
2023/11/06 06:22:16;;;;;;;4.13;1.07;;;;;;;10.19;78.68;98362.91;5089041;28;20208;-65
2023/11/06 06:24:45;;;;;;;0.97;0.97;;;;;;;10.22;77.95;98372.25;5087294;28;20720;-62
2023/11/06 06:27:14;;;;;;;3.47;0.90;;;;;;;10.21;77.27;98371.41;5090330;28;20196;-65
2023/11/06 06:29:45;;;;;;;2.60;0.80;;;;;;;10.21;77.02;98375.72;5092763;28;20204;-66
2023/11/06 06:32:14;;;;;;;0.90;0.80;;;;;;;10.24;77.03;98385.91;5088632;28;20537;-66
2023/11/06 06:34:42;;;;;;;1.90;0.87;;;;;;;10.23;76.55;98391.94;5088467;28;20197;-65
2023/11/06 06:37:11;;;;;;;2.77;0.93;;;;;;;10.28;76.40;98393.50;5090907;28;20211;-65
2023/11/06 06:39:39;;;;;;;1.27;0.70;;;;;;;10.28;75.89;98406.38;5091111;28;20205;-64
2023/11/06 06:42:07;;;;;;;1.53;0.80;;;;;;;10.29;75.61;98404.63;5077598;28;20232;-65
2023/11/06 06:44:37;;;;;;;1.47;1.00;;;;;;;10.31;75.48;98408.84;5086305;28;20208;-66
2023/11/06 06:47:06;;;;;;;1.73;0.90;;;;;;;10.32;74.78;98407.94;5089798;28;20254;-66
2023/11/06 06:49:39;;;;;;;1.03;0.80;;;;;;;10.32;74.08;98413.06;5089582;28;20216;-66
2023/11/06 06:52:07;;;;;;;5.10;0.80;;;;;;;10.38;74.26;98420.59;5084032;28;20201;-67
2023/11/06 06:54:35;;;;;;;0.93;0.80;;;;;;;10.42;73.86;98428.16;5088142;28;20200;-66
2023/11/06 06:57:03;;;;;;;2.10;0.90;;;;;;;10.42;73.51;98441.03;5084617;28;20254;-64
2023/11/06 06:59:31;;;;;;;1.90;0.90;;;;;;;10.45;73.25;98441.78;5081679;28;20257;-65
2023/11/06 07:02:01;;;;;;;1.10;0.77;;;;;;;10.50;72.55;98442.47;5091603;28;20204;-64
2023/11/06 07:04:29;;;;;;;1.93;0.80;;;;;;;10.50;72.10;98457.06;5087934;28;20209;-65
2023/11/06 07:06:57;;;;;;;1.53;1.13;;;;;;;10.53;72.15;98457.81;5075281;28;20687;-63
2023/11/06 07:09:27;;;;;;;4.40;0.80;;;;;;;10.59;71.00;98464.44;5089924;28;20220;-70
2023/11/06 07:11:55;;;;;;;1.57;0.63;;;;;;;10.60;70.98;98455.81;5089145;28;20204;-67
2023/11/06 07:14:24;;;;;;;1.67;0.87;;;;;;;10.61;70.83;98466.06;5086467;28;20201;-65
2023/11/06 07:16:52;;;;;;;0.90;0.73;;;;;;;10.59;70.13;98467.84;5087281;28;20671;-66
2023/11/06 07:19:22;;;;;;;1.67;0.80;;;;;;;10.64;70.19;98478.84;5089035;28;20634;-65
2023/11/06 07:21:54;;;;;;;4.63;0.83;;;;;;;10.67;70.14;98475.28;5088296;28;20549;-65
2023/11/06 07:24:22;;;;;;;1.13;0.80;;;;;;;10.71;70.13;98481.19;5086501;28;20281;-66
2023/11/06 07:26:50;;;;;;;2.23;0.80;;;;;;;10.77;69.45;98480.97;5090185;28;20541;-66
2023/11/06 07:29:18;;;;;;;1.37;0.67;;;;;;;10.77;69.29;98491.25;5100024;28;20220;-65
2023/11/06 07:31:46;;;;;;;2.40;0.90;;;;;;;10.82;69.22;98479.88;5092923;28;20200;-69
2023/11/06 07:34:14;;;;;;;2.03;0.67;;;;;;;10.79;68.71;98472.28;5084028;28;20269;-68
2023/11/06 07:36:43;;;;;;;1.27;0.73;;;;;;;10.78;69.04;98480.06;5098929;28;20684;-68
2023/11/06 07:39:14;;;;;;;1.20;0.70;;;;;;;10.75;68.86;98490.47;5092421;28;20577;-69
2023/11/06 07:41:42;;;;;;;2.23;0.80;;;;;;;10.72;69.26;98490.59;5093025;28;20204;-68
2023/11/06 07:44:10;;;;;;;1.63;0.73;;;;;;;10.75;69.01;98505.94;5101295;28;20685;-69
2023/11/06 07:46:38;;;;;;;1.03;0.80;;;;;;;10.75;69.14;98506.78;5094675;28;20196;-71
2023/11/06 07:49:06;;;;;;;2.80;0.90;;;;;;;10.72;69.37;98501.75;5091382;28;20220;-71
2023/11/06 07:51:34;;;;;;;3.77;0.80;;;;;;;10.75;69.67;98500.78;5092327;28;20201;-68
2023/11/06 07:54:04;;;;;;;2.80;0.70;;;;;;;10.74;69.03;98509.41;5099702;28;20203;-70
2023/11/06 07:56:32;;;;;;;2.33;1.10;;;;;;;10.75;69.62;98526.53;5099921;28;20204;-69
2023/11/06 07:59:02;;;;;;;1.47;0.70;;;;;;;10.74;69.16;98530.00;5099026;28;20204;-68
2023/11/06 08:01:31;;;;;;;3.33;1.13;;;;;;;10.71;69.80;98533.53;5093602;28;20200;-71
2023/11/06 08:03:59;;;;;;;0.83;0.70;;;;;;;10.76;70.14;98560.00;5090315;28;20220;-69
2023/11/06 08:06:27;;;;;;;1.03;0.80;;;;;;;10.80;69.90;98555.56;5085742;28;20277;-69
2023/11/06 08:08:55;;;;;;;2.33;0.80;;;;;;;10.80;69.40;98556.41;5091228;28;20220;-68
2023/11/06 08:11:25;;;;;;;3.03;1.33;;;;;;;10.82;69.15;98553.75;5095417;28;20564;-70
2023/11/06 08:13:53;;;;;;;2.17;0.90;;;;;;;10.83;68.81;98560.59;5094016;28;20212;-69
2023/11/06 08:16:21;;;;;;;0.87;0.70;;;;;;;10.82;69.29;98564.06;5094509;28;20199;-67
2023/11/06 08:18:49;;;;;;;2.63;0.90;;;;;;;10.79;69.19;98565.03;5089335;28;20243;-69
2023/11/06 08:21:17;;;;;;;7.57;0.80;;;;;;;10.79;69.20;98585.66;5094347;28;20205;-67
2023/11/06 08:23:45;;;;;;;2.43;1.00;;;;;;;10.77;69.54;98584.00;5089002;28;20277;-68
2023/11/06 08:26:13;;;;;;;0.73;0.60;;;;;;;10.74;69.50;98586.69;5091642;28;20291;-67
2023/11/06 08:28:43;;;;;;;1.20;0.90;;;;;;;10.75;69.54;98588.38;5098101;28;20224;-70
2023/11/06 08:31:13;;;;;;;6.40;2.80;;;;;;;10.74;69.58;98592.69;5086798;28;20220;-68
2023/11/06 08:33:41;;;;;;;1.77;0.83;;;;;;;10.72;69.50;98601.38;5098417;28;20252;-67
2023/11/06 08:36:09;;;;;;;3.67;1.10;;;;;;;10.70;70.08;98610.88;5090390;28;20283;-69
2023/11/06 08:38:38;;;;;;;1.97;0.80;;;;;;;10.65;70.23;98618.78;5092346;28;20200;-69
2023/11/06 08:41:08;;;;;;;1.00;0.57;;;;;;;10.59;71.02;98640.41;5083842;28;20204;-69
2023/11/06 08:43:36;;;;;;;1.10;0.80;;;;;;;10.60;71.08;98625.81;5096405;28;20505;-76
2023/11/06 08:46:07;;;;;;;1.07;0.70;;;;;;;10.59;71.30;98645.56;5094246;28;20227;-73
2023/11/06 08:48:35;;;;;;;1.57;0.60;;;;;;;10.54;70.95;98639.75;5093820;28;20205;-72
2023/11/06 08:51:04;;;;;;;2.07;1.17;;;;;;;10.52;71.31;98633.78;5093601;28;20270;-72
2023/11/06 08:53:32;;;;;;;1.50;0.63;;;;;;;10.53;71.32;98637.22;5094664;28;20714;-71
2023/11/06 08:56:00;;;;;;;4.83;0.93;;;;;;;10.49;71.09;98633.88;5096140;28;20299;-74
2023/11/06 08:58:28;;;;;;;4.47;1.00;;;;;;;10.50;71.25;98653.63;5094301;28;20213;-76
2023/11/06 09:00:58;;;;;;;2.43;0.90;;;;;;;10.51;71.16;98657.88;5091409;28;20215;-73
2023/11/06 09:03:28;;;;;;;1.47;1.00;;;;;;;10.51;71.30;98651.88;5094241;28;20652;-71
2023/11/06 09:05:56;;;;;;;0.97;0.90;;;;;;;10.50;70.93;98647.63;5090793;28;20204;-73
2023/11/06 09:08:24;;;;;;;1.67;0.80;;;;;;;10.53;70.25;98676.72;5098372;28;20686;-73
2023/11/06 09:10:52;;;;;;;2.97;0.93;;;;;;;10.56;71.81;98670.59;5091689;28;20531;-71
2023/11/06 09:13:20;;;;;;;1.83;1.03;;;;;;;10.56;70.84;98675.75;5090230;28;20240;-73
2023/11/06 09:15:49;;;;;;;2.47;0.97;;;;;;;10.58;71.02;98710.88;5088293;28;20236;-70
2023/11/06 09:18:19;;;;;;;1.60;1.07;;;;;;;10.59;71.58;98717.69;5084281;28;20247;-68
2023/11/06 09:20:51;;;;;;;1.03;0.83;;;;;;;10.53;72.98;98705.03;5097606;28;20695;-73
2023/11/06 09:23:21;;;;;;;2.93;0.80;;;;;;;10.40;74.03;98712.31;5092750;28;20916;-70
2023/11/06 09:25:49;;;;;;;2.87;0.93;;;;;;;10.35;75.68;98721.91;5091343;28;20576;-67
2023/11/06 09:28:17;;;;;;;2.67;1.10;;;;;;;10.33;75.54;98699.69;5087052;28;20676;-72
2023/11/06 09:30:46;;;;;;;1.20;0.87;;;;;;;10.32;75.42;98703.16;5087789;28;20212;-70
2023/11/06 09:33:14;;;;;;;1.90;0.77;;;;;;;10.33;75.96;98715.13;5090369;28;20258;-73
2023/11/06 09:35:43;;;;;;;6.10;1.40;;;;;;;10.30;75.26;98722.94;5092659;28;20663;-74
2023/11/06 09:38:14;;;;;;;3.77;0.87;;;;;;;10.26;75.79;98716.22;5093462;28;20385;-73
2023/11/06 09:40:43;;;;;;;3.43;1.20;;;;;;;10.27;75.69;98733.31;5092132;28;20216;-72
2023/11/06 09:43:11;;;;;;;1.27;0.83;;;;;;;10.26;75.09;98723.94;5100822;28;20208;-73
2023/11/06 09:45:40;;;;;;;1.87;1.13;;;;;;;10.26;75.12;98724.78;5102108;28;20200;-72
2023/11/06 09:48:09;;;;;;;2.23;0.90;;;;;;;10.36;75.22;98721.03;5083155;28;20196;-73
2023/11/06 09:50:42;;;;;;;3.00;1.10;;;;;;;10.48;74.10;98724.94;5089093;28;20320;-72
2023/11/06 09:53:10;;;;;;;1.77;0.93;;;;;;;10.58;74.26;98741.78;5080494;28;20205;-72
2023/11/06 09:55:40;;;;;;;2.63;0.90;;;;;;;10.62;72.68;98742.50;5087325;28;20204;-75
2023/11/06 09:58:09;;;;;;;2.43;1.20;;;;;;;10.56;72.95;98740.97;5094255;28;20687;-71
2023/11/06 10:00:38;;;;;;;1.80;1.00;;;;;;;10.59;72.93;98743.44;5096337;28;20656;-74
2023/11/06 10:03:07;;;;;;;3.30;1.10;;;;;;;10.58;72.83;98751.22;5098005;28;20603;-72
2023/11/06 10:05:35;;;;;;;1.97;0.90;;;;;;;10.61;72.26;98756.28;5097199;28;20681;-67
2023/11/06 10:08:04;;;;;;;3.20;0.90;;;;;;;10.61;71.74;98757.13;5092827;28;20205;-68
2023/11/06 10:10:34;;;;;;;3.33;1.00;;;;;;;10.62;71.60;98761.38;5101086;28;20217;-67
2023/11/06 10:13:05;;;;;;;1.50;0.80;;;;;;;10.64;71.88;98766.47;5092469;28;20279;-68
2023/11/06 10:15:34;;;;;;;1.53;0.90;;;;;;;10.68;71.76;98773.25;5083012;28;20288;-69
2023/11/06 10:18:13;;;;;;;2.30;1.10;;;;;;;10.74;71.82;98764.44;5088541;28;20256;-72
2023/11/06 10:20:43;;;;;;;1.90;0.83;;;;;;;10.74;70.82;98773.03;5086774;28;20667;-72
2023/11/06 10:23:13;;;;;;;4.67;1.30;;;;;;;10.78;71.19;98769.44;5072876;28;20207;-73
2023/11/06 10:25:42;;;;;;;1.93;1.00;;;;;;;10.86;70.79;98782.06;5092132;28;20204;-70
2023/11/06 10:28:21;;;;;;;3.37;1.10;;;;;;;10.85;70.65;98776.09;5103681;28;20204;-76
2023/11/06 10:30:53;;;;;;;3.57;1.30;;;;;;;10.88;70.23;98788.03;5080159;28;20218;-74
2023/11/06 10:33:23;;;;;;;2.93;1.10;;;;;;;10.91;70.24;98790.50;5092157;28;20643;-74
2023/11/06 10:35:52;;;;;;;1.57;0.80;;;;;;;10.87;69.78;98778.63;5095344;28;20210;-69
2023/11/06 10:38:29;;;;;;;2.30;1.00;;;;;;;11.01;69.19;98791.91;5089970;28;20716;-76
2023/11/06 10:40:57;;;;;;;4.13;1.17;;;;;;;11.11;68.95;98800.97;5091325;28;20196;-74
2023/11/06 10:43:29;;;;;;;1.10;0.90;;;;;;;11.22;68.46;98804.94;5091440;28;20358;-72
2023/11/06 10:46:03;;;;;;;2.30;1.00;;;;;;;11.29;68.07;98821.88;5091657;28;20200;-72
2023/11/06 10:48:34;;;;;;;4.93;1.10;;;;;;;11.36;66.87;98813.06;5091454;28;20211;-71
2023/11/06 10:51:10;;;;;;;2.93;0.90;;;;;;;11.38;65.88;98811.28;5088623;28;20226;-71
2023/11/06 10:53:40;;;;;;;4.40;1.10;;;;;;;11.41;66.10;98811.13;5089344;28;20222;-68
2023/11/06 10:56:11;;;;;;;2.03;0.90;;;;;;;11.51;65.15;98833.16;5088076;28;20208;-72
2023/11/06 10:58:42;;;;;;;2.87;0.80;;;;;;;11.67;65.10;98837.75;5085198;28;20207;-72
2023/11/06 11:01:22;;;;;;;1.67;1.10;;;;;;;11.83;64.45;98828.59;5090776;28;20223;-73
2023/11/06 11:03:55;;;;;;;3.20;0.80;;;;;;;11.99;63.95;98836.66;5091233;28;20294;-74
2023/11/06 11:06:25;;;;;;;2.23;1.07;;;;;;;12.07;62.62;98837.19;5090748;28;20205;-77
2023/11/06 11:08:55;;;;;;;1.30;0.70;;;;;;;12.16;62.49;98841.19;5086018;28;20196;-73
2023/11/06 11:11:24;;;;;;;3.60;0.97;;;;;;;12.24;62.62;98854.66;5080285;28;20229;-77
2023/11/06 11:13:53;;;;;;;3.00;1.20;;;;;;;12.25;61.28;98846.00;5091095;28;20200;-74
2023/11/06 11:16:37;;;;;;;1.27;0.70;;;;;;;12.20;60.87;98820.38;5086756;28;20673;-76
2023/11/06 11:19:27;;;;;;;3.00;0.83;;;;;;;12.26;60.57;98858.00;5085950;28;20648;-77
2023/11/06 11:22:04;;;;;;;2.50;0.93;;;;;;;12.12;61.66;98855.97;5086114;28;20216;-76
2023/11/06 11:24:50;;;;;;;1.73;0.80;;;;;;;12.12;62.07;98852.53;5088442;28;20226;-74
2023/11/06 11:27:21;;;;;;;1.13;1.00;;;;;;;12.14;62.04;98864.47;5092224;28;20717;-78
2023/11/06 11:30:15;;;;;;;2.03;1.10;;;;;;;12.18;61.76;98855.72;5096018;28;20196;-77
2023/11/06 11:32:49;;;;;;;1.97;0.67;;;;;;;12.21;61.18;98862.50;5086936;28;20196;-77
2023/11/06 11:35:58;;;;;;;2.40;0.97;;;;;;;12.22;61.14;98862.44;5088836;28;20643;-77
2023/11/06 11:38:35;;;;;;;2.00;0.80;;;;;;;12.32;60.74;98863.78;5095628;28;20209;-73
2023/11/06 11:41:18;;;;;;;4.97;0.90;;;;;;;12.41;60.73;98866.91;5090687;28;20223;-73
2023/11/06 11:43:47;;;;;;;1.73;0.90;;;;;;;12.53;60.40;98859.56;5091698;28;20210;-74
2023/11/06 11:47:03;;;;;;;1.97;1.23;;;;;;;12.66;59.48;98872.00;5089357;28;20589;-72